LGEL

Details ICAO LGEL
Name ELEFSIS
Region Greece
Timezone Europe/Athens (UTC+2.0)
Plans Departing 34
Arriving 20
Stats Elevation 143 ft / 44 m (AMSL)
Location 38.063917° 23.556041°
Runways 1
Magnetic Variation 4.448° E
Sunrise 2017-12-12 05:34:02 UTC / 2017-12-12 07:34:02 Local
Sunset 2017-12-12 15:07:47 UTC / 2017-12-12 17:07:47 Local
Advertisement - Login to hide

Runways

ID Width Length Bearing (true) Bearing (mag) Surface Threshold Offset Overrun Length
18 131 ft / 40 m 8,940 ft / 2,725 m 179.85° 175.40° Asphalt 0 ft / 0 m 830 ft / 253 m
36 131 ft / 40 m 8,940 ft / 2,725 m 359.85° 355.40° Asphalt 198 ft / 60 m 150 ft / 46 m

Map

Weather


0- 5 10 15 20 25 30 35+ Temperature / ° C

Clouds and Precipitation
Forecast for 2017-12-12 12:00 UTC. Updated an hour ago

Ground ~20,000 ft ~40,000 ft Winds

METAR

LGEL 121150Z 00000KT 9999 FEW070 17/09 Q1022

TAF

TAF LGEL 121100Z 1212/1312 VRB05KT 9999 FEW025 TEMPO 1212/1215 18010KT

Frequencies

Tower 122.10 MHz TWR
Approach 119.10 MHz ATHINAI APP
Tower 120.15 MHz TWR
Approach 129.55 MHz ATHINAI APP
Warning: Do not use this data for real-world aviation or navigation. No guarantee of current accuracy is given.